Terminal Aerodrome Forecast
Issued by NWS

Home | Current Version | Previous Version | Text Only | Print | Product List | Glossary On
Versions: 1 2 3 4 5 6 7 8 9 10 11 12 13 14 15 16
000
FTUS43 KFGF 161724
TAFBJI
TAF
KBJI 161724Z 1618/1718 VRB03KT P6SM SKC
     FM170300 00000KT 4SM BR FEW110
     FM171600 VRB03KT P6SM FEW150=

USA.gov is the U.S. government's official web portal to all federal, state and local government web resources and services.